Time;durP1;ratioP1;P1;durP2;ratioP2;P2;SDS_P1;SDS_P2;PMS_P1;PMS_P2;Temp;Humidity;BMP_temperature;BMP_pressure;BME280_temperature;BME280_humidity;BME280_pressure;Samples;Min_cycle;Max_cycle;Signal;HPM_P1;HPM_P2
2022/10/25 00:00:21;;;;;;;15.67;2.67;;;;;;;;;;7363433;19;20474;-78
2022/10/25 00:02:47;;;;;;;15.23;2.27;;;;;;;;;;7363077;19;20259;-81
2022/10/25 00:05:13;;;;;;;12.80;2.38;;;;;;;;;;7365995;19;20264;-79
2022/10/25 00:07:38;;;;;;;12.00;2.45;;;;;;;;;;7359517;19;20717;-79
2022/10/25 00:10:03;;;;;;;17.70;2.50;;;;;;;;;;7362841;19;20021;-78
2022/10/25 00:12:29;;;;;;;10.32;2.13;;;;;;;;;;7348683;19;20014;-77
2022/10/25 00:14:54;;;;;;;13.00;2.10;;;;;;;;;;7341700;19;20074;-77
2022/10/25 00:17:19;;;;;;;17.83;2.40;;;;;;;;;;7364756;19;20015;-80
2022/10/25 00:19:44;;;;;;;14.63;2.40;;;;;;;;;;7368163;19;20075;-78
2022/10/25 00:22:10;;;;;;;13.45;2.38;;;;;;;;;;7357468;19;20790;-79
2022/10/25 00:24:35;;;;;;;15.43;2.80;;;;;;;;;;7369072;19;20093;-80
2022/10/25 00:27:00;;;;;;;20.65;2.47;;;;;;;;;;7367148;19;20841;-80
2022/10/25 00:29:25;;;;;;;15.47;2.67;;;;;;;;;;7361816;19;20119;-80
2022/10/25 00:31:50;;;;;;;12.97;2.30;;;;;;;;;;7368374;19;20015;-80
2022/10/25 00:34:15;;;;;;;9.55;2.10;;;;;;;;;;7364450;19;20260;-78
2022/10/25 00:36:41;;;;;;;14.53;3.10;;;;;;;;;;7368888;19;20121;-77
2022/10/25 00:39:06;;;;;;;10.90;2.50;;;;;;;;;;7365538;19;20278;-78
2022/10/25 00:41:32;;;;;;;15.23;2.40;;;;;;;;;;7375594;19;20270;-77
2022/10/25 00:44:16;;;;;;;17.38;2.30;;;;;;;;;;7376286;19;20263;-79
2022/10/25 00:46:43;;;;;;;19.30;2.63;;;;;;;;;;7352390;19;20041;-81
2022/10/25 00:49:14;;;;;;;14.32;3.47;;;;;;;;;;7372901;19;20029;-80
2022/10/25 00:51:50;;;;;;;17.33;3.03;;;;;;;;;;7377339;19;20014;-80
2022/10/25 00:54:35;;;;;;;15.05;2.45;;;;;;;;;;7370856;19;20017;-79
2022/10/25 00:57:03;;;;;;;15.40;2.58;;;;;;;;;;7364231;19;20006;-78
2022/10/25 00:59:29;;;;;;;18.15;3.00;;;;;;;;;;7377577;19;19998;-79
2022/10/25 01:01:54;;;;;;;15.00;2.30;;;;;;;;;;7361306;19;20008;-79
2022/10/25 01:04:21;;;;;;;14.32;2.40;;;;;;;;;;7372911;19;20012;-79
2022/10/25 01:06:47;;;;;;;12.75;2.50;;;;;;;;;;7374848;19;20342;-78
2022/10/25 01:09:15;;;;;;;19.77;2.78;;;;;;;;;;7366522;19;20002;-78
2022/10/25 01:11:40;;;;;;;14.75;2.55;;;;;;;;;;7370336;19;20018;-80
2022/10/25 01:14:07;;;;;;;12.83;2.90;;;;;;;;;;7376838;19;20392;-79
2022/10/25 01:16:33;;;;;;;17.50;2.63;;;;;;;;;;7369542;19;20680;-80
2022/10/25 01:19:07;;;;;;;22.53;3.50;;;;;;;;;;7365492;19;20022;-79
2022/10/25 01:21:49;;;;;;;23.65;4.40;;;;;;;;;;7371683;19;20430;-81
2022/10/25 01:24:23;;;;;;;13.38;2.65;;;;;;;;;;7360399;19;20042;-81
2022/10/25 01:27:00;;;;;;;16.80;2.35;;;;;;;;;;7365994;19;20009;-79
2022/10/25 01:29:37;;;;;;;13.07;3.00;;;;;;;;;;7336643;19;20018;-78
2022/10/25 01:32:10;;;;;;;15.52;3.20;;;;;;;;;;7370795;19;20072;-79
2022/10/25 01:34:46;;;;;;;15.57;2.88;;;;;;;;;;7368034;19;20317;-79
2022/10/25 01:37:30;;;;;;;18.45;3.03;;;;;;;;;;7371654;19;20105;-79
2022/10/25 01:39:55;;;;;;;15.95;2.75;;;;;;;;;;7360018;19;20030;-79
2022/10/25 01:42:27;;;;;;;13.73;2.27;;;;;;;;;;7371291;19;20375;-80
2022/10/25 01:45:00;;;;;;;20.45;2.95;;;;;;;;;;7372712;19;20323;-79
2022/10/25 01:47:31;;;;;;;13.65;2.55;;;;;;;;;;7373393;19;20482;-80
2022/10/25 01:50:06;;;;;;;14.27;2.90;;;;;;;;;;7364971;19;20014;-79
2022/10/25 01:52:31;;;;;;;15.25;3.03;;;;;;;;;;7374583;19;20879;-79
2022/10/25 01:54:56;;;;;;;14.90;2.93;;;;;;;;;;7374100;19;20010;-78
2022/10/25 01:57:21;;;;;;;24.90;3.67;;;;;;;;;;7361177;19;20255;-79
2022/10/25 01:59:46;;;;;;;11.75;2.55;;;;;;;;;;7373636;19;20306;-78
2022/10/25 02:02:24;;;;;;;17.13;2.50;;;;;;;;;;7374113;19;20089;-78
2022/10/25 02:04:56;;;;;;;14.50;2.97;;;;;;;;;;7374488;19;20699;-80
2022/10/25 02:07:21;;;;;;;17.20;2.72;;;;;;;;;;7371775;19;20010;-79
2022/10/25 02:10:04;;;;;;;14.50;2.47;;;;;;;;;;7374235;19;20009;-79
2022/10/25 02:12:41;;;;;;;18.05;2.90;;;;;;;;;;7373466;19;20255;-80
2022/10/25 02:15:08;;;;;;;12.75;2.45;;;;;;;;;;7369861;19;20031;-78
2022/10/25 02:17:37;;;;;;;12.55;2.83;;;;;;;;;;7355359;19;20478;-82
2022/10/25 02:20:03;;;;;;;17.20;2.63;;;;;;;;;;7357592;19;20509;-82
2022/10/25 02:22:31;;;;;;;14.38;2.45;;;;;;;;;;7375828;19;20010;-80
2022/10/25 02:24:56;;;;;;;15.40;2.88;;;;;;;;;;7374077;19;20364;-81
2022/10/25 02:27:23;;;;;;;11.18;2.50;;;;;;;;;;7375733;19;20007;-79
2022/10/25 02:29:49;;;;;;;15.10;2.85;;;;;;;;;;7377252;19;20044;-79
2022/10/25 02:32:14;;;;;;;14.43;2.58;;;;;;;;;;7376847;19;20018;-79
2022/10/25 02:34:39;;;;;;;12.15;2.60;;;;;;;;;;7366511;19;20503;-79
2022/10/25 02:37:05;;;;;;;11.40;2.70;;;;;;;;;;7373929;19;20014;-80
2022/10/25 02:39:30;;;;;;;16.53;2.90;;;;;;;;;;7374668;19;20031;-80
2022/10/25 02:41:55;;;;;;;16.30;2.47;;;;;;;;;;7367270;19;20346;-80
2022/10/25 02:44:20;;;;;;;15.60;2.70;;;;;;;;;;7376563;19;20020;-79
2022/10/25 02:46:46;;;;;;;15.53;3.00;;;;;;;;;;7377773;19;20263;-78
2022/10/25 02:49:11;;;;;;;12.93;2.85;;;;;;;;;;7358653;19;20240;-80
2022/10/25 02:51:36;;;;;;;15.37;2.80;;;;;;;;;;7376413;19;20010;-80
2022/10/25 02:54:01;;;;;;;15.73;2.77;;;;;;;;;;7376874;19;20248;-79
2022/10/25 02:56:27;;;;;;;13.15;2.65;;;;;;;;;;7355474;19;20271;-78
2022/10/25 02:58:54;;;;;;;15.77;2.83;;;;;;;;;;7371703;19;20027;-81
2022/10/25 03:01:20;;;;;;;14.90;2.50;;;;;;;;;;7375729;19;20033;-79
2022/10/25 03:03:45;;;;;;;16.00;2.80;;;;;;;;;;7371088;19;20323;-78
2022/10/25 03:06:11;;;;;;;18.92;2.42;;;;;;;;;;7362640;19;20141;-79
2022/10/25 03:08:37;;;;;;;16.20;2.60;;;;;;;;;;7375498;19;20315;-79
2022/10/25 03:11:03;;;;;;;11.85;2.72;;;;;;;;;;7367034;19;20526;-79
2022/10/25 03:13:28;;;;;;;14.95;3.00;;;;;;;;;;7365211;19;20093;-79
2022/10/25 03:15:53;;;;;;;15.90;2.80;;;;;;;;;;7370324;19;20018;-78
2022/10/25 03:18:18;;;;;;;14.70;2.60;;;;;;;;;;7373043;19;20033;-79
2022/10/25 03:20:44;;;;;;;16.13;2.57;;;;;;;;;;7365280;19;20266;-78
2022/10/25 03:23:09;;;;;;;16.70;3.45;;;;;;;;;;7372590;19;20248;-79
2022/10/25 03:25:35;;;;;;;15.52;2.97;;;;;;;;;;7358907;19;19996;-80
2022/10/25 03:28:00;;;;;;;13.73;2.92;;;;;;;;;;7365174;19;20097;-79
2022/10/25 03:30:26;;;;;;;14.75;2.30;;;;;;;;;;7376764;19;20018;-80
2022/10/25 03:32:51;;;;;;;13.07;2.30;;;;;;;;;;7375956;19;20014;-80
2022/10/25 03:35:17;;;;;;;15.45;2.75;;;;;;;;;;7365675;19;20007;-79
2022/10/25 03:37:42;;;;;;;15.63;2.70;;;;;;;;;;7374077;19;20014;-80
2022/10/25 03:40:07;;;;;;;17.33;2.77;;;;;;;;;;7371915;19;20216;-78
2022/10/25 03:42:32;;;;;;;15.15;2.75;;;;;;;;;;7350365;19;20283;-81
2022/10/25 03:44:58;;;;;;;14.25;2.80;;;;;;;;;;7369401;19;19995;-79
2022/10/25 03:47:23;;;;;;;18.50;3.70;;;;;;;;;;7369088;19;20157;-81
2022/10/25 03:49:48;;;;;;;13.60;2.83;;;;;;;;;;7372533;19;20020;-78
2022/10/25 03:52:13;;;;;;;17.17;3.40;;;;;;;;;;7376101;19;20771;-79
2022/10/25 03:54:40;;;;;;;16.70;3.07;;;;;;;;;;7366934;19;20228;-80
2022/10/25 03:57:06;;;;;;;15.68;2.38;;;;;;;;;;7363682;19;20287;-81
2022/10/25 03:59:31;;;;;;;14.18;3.22;;;;;;;;;;7368771;19;20383;-78
2022/10/25 04:01:56;;;;;;;16.93;2.87;;;;;;;;;;7376468;19;20566;-81
2022/10/25 04:04:21;;;;;;;21.85;2.70;;;;;;;;;;7373331;19;20244;-78
2022/10/25 04:06:46;;;;;;;19.83;3.60;;;;;;;;;;7360760;19;20014;-78
2022/10/25 04:09:12;;;;;;;17.58;2.60;;;;;;;;;;7371360;19;19994;-81
2022/10/25 04:11:37;;;;;;;19.27;3.00;;;;;;;;;;7364110;19;20212;-79
2022/10/25 04:14:02;;;;;;;14.57;2.33;;;;;;;;;;7354529;19;20278;-78
2022/10/25 04:16:27;;;;;;;12.33;2.80;;;;;;;;;;7377305;19;20263;-79
2022/10/25 04:18:52;;;;;;;15.70;3.07;;;;;;;;;;7379508;19;20292;-79
2022/10/25 04:21:18;;;;;;;16.63;2.88;;;;;;;;;;7382595;19;20730;-80
2022/10/25 04:23:43;;;;;;;17.50;2.85;;;;;;;;;;7376605;19;20448;-81
2022/10/25 04:26:09;;;;;;;15.27;2.63;;;;;;;;;;7372899;19;20011;-79
2022/10/25 04:28:34;;;;;;;12.63;2.50;;;;;;;;;;7376113;19;20631;-80
2022/10/25 04:30:59;;;;;;;12.40;2.50;;;;;;;;;;7380004;19;20479;-80
2022/10/25 04:33:24;;;;;;;12.93;2.43;;;;;;;;;;7381452;19;20240;-78
2022/10/25 04:35:55;;;;;;;22.63;3.60;;;;;;;;;;7373182;19;20006;-80
2022/10/25 04:38:20;;;;;;;17.33;3.05;;;;;;;;;;7379452;19;20258;-80
2022/10/25 04:40:51;;;;;;;18.23;2.85;;;;;;;;;;7373528;19;20854;-78
2022/10/25 04:43:16;;;;;;;14.95;2.50;;;;;;;;;;7371302;19;20023;-79
2022/10/25 04:45:41;;;;;;;15.60;2.80;;;;;;;;;;7381517;19;20003;-79
2022/10/25 04:48:07;;;;;;;14.77;3.80;;;;;;;;;;7379712;19;21107;-78
2022/10/25 04:50:32;;;;;;;15.47;2.33;;;;;;;;;;7383347;19;20223;-81
2022/10/25 04:52:57;;;;;;;16.03;2.90;;;;;;;;;;7365452;19;20303;-80
2022/10/25 04:55:22;;;;;;;16.40;2.73;;;;;;;;;;7344373;19;20263;-79
2022/10/25 04:57:47;;;;;;;13.03;3.33;;;;;;;;;;7379565;19;20632;-79
2022/10/25 05:00:13;;;;;;;16.50;2.80;;;;;;;;;;7372210;19;20271;-80
2022/10/25 05:02:38;;;;;;;13.80;3.05;;;;;;;;;;7377418;19;20402;-81
2022/10/25 05:05:03;;;;;;;15.38;3.15;;;;;;;;;;7373463;19;20009;-79
2022/10/25 05:07:28;;;;;;;16.25;3.45;;;;;;;;;;7373336;19;20029;-79
2022/10/25 05:09:53;;;;;;;27.83;4.03;;;;;;;;;;7377594;19;19999;-79
2022/10/25 05:12:19;;;;;;;13.43;3.10;;;;;;;;;;7380419;19;20247;-81
2022/10/25 05:14:44;;;;;;;18.23;3.57;;;;;;;;;;7366002;19;20252;-79
2022/10/25 05:17:09;;;;;;;16.48;2.80;;;;;;;;;;7381017;19;20252;-80
2022/10/25 05:19:34;;;;;;;19.17;2.63;;;;;;;;;;7378098;19;19999;-78
2022/10/25 05:21:59;;;;;;;14.52;2.67;;;;;;;;;;7367613;19;20014;-79
2022/10/25 05:24:25;;;;;;;11.73;2.33;;;;;;;;;;7378248;19;20023;-80
2022/10/25 05:26:51;;;;;;;12.20;3.10;;;;;;;;;;7368757;19;21205;-79
2022/10/25 05:29:16;;;;;;;12.00;2.53;;;;;;;;;;7366379;19;20086;-79
2022/10/25 05:31:41;;;;;;;12.32;2.33;;;;;;;;;;7377713;19;20023;-79
2022/10/25 05:34:06;;;;;;;11.02;2.15;;;;;;;;;;7380676;19;20474;-78
2022/10/25 05:36:32;;;;;;;14.63;2.83;;;;;;;;;;7372417;19;20086;-78
2022/10/25 05:38:58;;;;;;;16.52;3.35;;;;;;;;;;7379862;19;20251;-79
2022/10/25 05:41:23;;;;;;;17.20;2.60;;;;;;;;;;7378187;19;19994;-78
2022/10/25 05:43:48;;;;;;;14.80;2.70;;;;;;;;;;7368975;19;21089;-79
2022/10/25 05:46:15;;;;;;;16.58;3.25;;;;;;;;;;7378429;19;20006;-79
2022/10/25 05:48:41;;;;;;;17.80;2.95;;;;;;;;;;7377074;19;20002;-80
2022/10/25 05:51:16;;;;;;;12.40;3.00;;;;;;;;;;7372435;19;20057;-78
2022/10/25 05:53:46;;;;;;;17.75;3.05;;;;;;;;;;7380846;19;20020;-80
2022/10/25 05:56:11;;;;;;;15.48;3.17;;;;;;;;;;7362267;19;20792;-78
2022/10/25 05:58:36;;;;;;;13.07;2.42;;;;;;;;;;7378071;19;19998;-79
2022/10/25 06:01:02;;;;;;;12.32;2.17;;;;;;;;;;7355225;19;20006;-78
2022/10/25 06:03:27;;;;;;;12.82;2.80;;;;;;;;;;7362902;19;20023;-80
2022/10/25 06:05:52;;;;;;;13.90;2.53;;;;;;;;;;7363643;19;20056;-81
2022/10/25 06:08:17;;;;;;;17.88;2.85;;;;;;;;;;7374330;19;20303;-79
2022/10/25 06:10:42;;;;;;;14.43;2.70;;;;;;;;;;7374763;19;20521;-78
2022/10/25 06:13:08;;;;;;;13.70;2.73;;;;;;;;;;7377748;19;20239;-80
2022/10/25 06:15:35;;;;;;;11.50;2.28;;;;;;;;;;7369298;19;20255;-81
2022/10/25 06:18:00;;;;;;;12.18;2.88;;;;;;;;;;7378401;19;20018;-80
2022/10/25 06:20:26;;;;;;;12.33;2.67;;;;;;;;;;7378490;19;20015;-81
2022/10/25 06:22:51;;;;;;;17.90;2.97;;;;;;;;;;7376099;19;21171;-80
2022/10/25 06:25:16;;;;;;;15.00;2.60;;;;;;;;;;7374904;19;20286;-80
2022/10/25 06:27:41;;;;;;;18.83;2.30;;;;;;;;;;7380471;19;20890;-79
2022/10/25 06:30:07;;;;;;;12.50;2.07;;;;;;;;;;7376472;19;20466;-81
2022/10/25 06:32:32;;;;;;;16.17;2.50;;;;;;;;;;7375659;19;20266;-82
2022/10/25 06:34:57;;;;;;;13.80;2.40;;;;;;;;;;7370008;19;20011;-80
2022/10/25 06:37:22;;;;;;;11.02;2.30;;;;;;;;;;7357735;19;20267;-81
2022/10/25 06:39:47;;;;;;;10.60;2.47;;;;;;;;;;7364762;19;20002;-80
2022/10/25 06:42:12;;;;;;;13.80;2.22;;;;;;;;;;7371070;19;20283;-81
2022/10/25 06:44:38;;;;;;;17.93;2.80;;;;;;;;;;7363289;19;20057;-80
2022/10/25 06:47:03;;;;;;;12.00;2.50;;;;;;;;;;7363580;19;20726;-81
2022/10/25 06:49:28;;;;;;;13.60;2.97;;;;;;;;;;7368151;19;20230;-81
2022/10/25 06:51:53;;;;;;;13.77;2.03;;;;;;;;;;7362173;19;20082;-79
2022/10/25 06:54:18;;;;;;;14.35;2.47;;;;;;;;;;7369234;19;20023;-80
2022/10/25 06:56:44;;;;;;;19.42;2.72;;;;;;;;;;7365315;19;20476;-81
2022/10/25 06:59:10;;;;;;;16.02;2.92;;;;;;;;;;7368039;19;20016;-80
2022/10/25 07:01:35;;;;;;;20.73;2.25;;;;;;;;;;7371087;19;20093;-81
2022/10/25 07:04:01;;;;;;;18.13;3.20;;;;;;;;;;7368478;19;20642;-79
2022/10/25 07:06:28;;;;;;;12.13;2.05;;;;;;;;;;7368981;19;20232;-80
2022/10/25 07:08:54;;;;;;;14.18;2.83;;;;;;;;;;7368200;19;20038;-80
2022/10/25 07:11:19;;;;;;;11.10;2.25;;;;;;;;;;7371925;19;20019;-80
2022/10/25 07:13:45;;;;;;;14.52;2.30;;;;;;;;;;7370779;19;20141;-79
2022/10/25 07:16:11;;;;;;;14.23;2.88;;;;;;;;;;7371043;19;20014;-80
2022/10/25 07:18:37;;;;;;;13.82;3.20;;;;;;;;;;7371974;19;20489;-79
2022/10/25 07:21:04;;;;;;;11.50;2.55;;;;;;;;;;7356387;19;20038;-80
2022/10/25 07:23:29;;;;;;;11.65;2.78;;;;;;;;;;7365140;19;20081;-80
2022/10/25 07:25:54;;;;;;;13.00;2.30;;;;;;;;;;7366377;19;20073;-81
2022/10/25 07:28:19;;;;;;;9.88;2.10;;;;;;;;;;7363268;19;20391;-80
2022/10/25 07:30:45;;;;;;;9.52;2.05;;;;;;;;;;7369310;19;19999;-81
2022/10/25 07:33:11;;;;;;;9.60;2.05;;;;;;;;;;7365725;19;20007;-80
2022/10/25 07:35:36;;;;;;;14.07;2.70;;;;;;;;;;7369458;19;20017;-81
2022/10/25 07:38:01;;;;;;;15.73;3.00;;;;;;;;;;7365489;19;20010;-80
2022/10/25 07:40:26;;;;;;;10.03;2.27;;;;;;;;;;7360179;19;20273;-81
2022/10/25 07:42:52;;;;;;;9.77;2.30;;;;;;;;;;7367869;19;21098;-80
2022/10/25 07:45:17;;;;;;;12.85;2.00;;;;;;;;;;7370945;19;20239;-80
2022/10/25 07:47:42;;;;;;;11.77;2.47;;;;;;;;;;7363394;19;20022;-80
2022/10/25 07:50:07;;;;;;;13.60;2.13;;;;;;;;;;7362427;19;20011;-81
2022/10/25 07:52:32;;;;;;;10.20;2.47;;;;;;;;;;7373132;19;20627;-79
2022/10/25 07:54:58;;;;;;;9.90;2.13;;;;;;;;;;7364649;19;20018;-80
2022/10/25 07:57:23;;;;;;;16.35;2.63;;;;;;;;;;7360865;19;20303;-81
2022/10/25 07:59:48;;;;;;;11.68;2.28;;;;;;;;;;7368467;19;19995;-80
2022/10/25 08:02:13;;;;;;;8.37;2.37;;;;;;;;;;7368791;19;20374;-81
2022/10/25 08:04:39;;;;;;;11.07;2.33;;;;;;;;;;7363052;19;20258;-80
2022/10/25 08:07:04;;;;;;;15.35;2.58;;;;;;;;;;7357924;19;20015;-81
2022/10/25 08:09:29;;;;;;;13.57;1.73;;;;;;;;;;7366964;19;19994;-82
2022/10/25 08:11:54;;;;;;;9.60;2.00;;;;;;;;;;7363154;19;20010;-80
2022/10/25 08:14:19;;;;;;;12.00;2.23;;;;;;;;;;7355777;19;20019;-80
2022/10/25 08:16:44;;;;;;;12.73;1.60;;;;;;;;;;7369256;19;20014;-80
2022/10/25 08:19:10;;;;;;;10.05;2.13;;;;;;;;;;7366678;19;20227;-80
2022/10/25 08:21:35;;;;;;;9.63;1.63;;;;;;;;;;7350666;19;20015;-81
2022/10/25 08:24:01;;;;;;;7.90;1.60;;;;;;;;;;7365950;19;20009;-79
2022/10/25 08:26:27;;;;;;;12.02;1.80;;;;;;;;;;7364677;19;20493;-80
2022/10/25 08:28:52;;;;;;;15.88;2.25;;;;;;;;;;7369878;19;20010;-80
2022/10/25 08:31:18;;;;;;;14.93;3.00;;;;;;;;;;7368617;19;20446;-80
2022/10/25 08:33:43;;;;;;;10.13;1.60;;;;;;;;;;7360886;19;20011;-80
2022/10/25 08:36:08;;;;;;;11.48;2.28;;;;;;;;;;7362751;19;20074;-80
2022/10/25 08:38:34;;;;;;;13.15;2.00;;;;;;;;;;7370722;19;20024;-79
2022/10/25 08:41:15;;;;;;;11.93;1.70;;;;;;;;;;7364840;19;20072;-79
2022/10/25 08:43:58;;;;;;;10.07;2.13;;;;;;;;;;7356688;19;20007;-80
2022/10/25 08:46:30;;;;;;;9.48;2.15;;;;;;;;;;7364952;19;20066;-80
2022/10/25 08:49:01;;;;;;;10.30;2.35;;;;;;;;;;7366853;19;20019;-81
2022/10/25 08:51:28;;;;;;;8.48;1.52;;;;;;;;;;7333499;19;20090;-81
2022/10/25 08:53:57;;;;;;;8.50;1.80;;;;;;;;;;7373211;19;20504;-81
2022/10/25 08:56:23;;;;;;;14.23;2.45;;;;;;;;;;7364155;19;20018;-81
2022/10/25 08:58:59;;;;;;;14.60;3.10;;;;;;;;;;7366692;19;20078;-80
2022/10/25 09:01:27;;;;;;;8.25;1.13;;;;;;;;;;7373822;19;20979;-80
2022/10/25 09:03:52;;;;;;;10.73;1.77;;;;;;;;;;7370017;19;20086;-81
2022/10/25 09:06:23;;;;;;;7.25;1.77;;;;;;;;;;7367875;19;20432;-80
2022/10/25 09:09:08;;;;;;;14.32;1.90;;;;;;;;;;7371185;19;20162;-80
2022/10/25 09:11:49;;;;;;;7.95;1.88;;;;;;;;;;7364675;19;20009;-81
2022/10/25 09:14:14;;;;;;;10.15;1.90;;;;;;;;;;7361168;19;20462;-81
2022/10/25 09:16:49;;;;;;;11.73;1.93;;;;;;;;;;7372359;19;20007;-79
2022/10/25 09:19:17;;;;;;;7.13;1.55;;;;;;;;;;7372337;19;20235;-80
2022/10/25 09:21:55;;;;;;;10.25;2.05;;;;;;;;;;7365850;19;20596;-81
2022/10/25 09:24:21;;;;;;;13.13;1.95;;;;;;;;;;7373640;19;20384;-80
2022/10/25 09:26:55;;;;;;;11.00;1.50;;;;;;;;;;7369394;19;20024;-81
2022/10/25 09:29:27;;;;;;;10.48;1.30;;;;;;;;;;7376662;19;19998;-80
2022/10/25 09:31:57;;;;;;;9.77;1.35;;;;;;;;;;7374141;19;20461;-80
2022/10/25 09:34:23;;;;;;;7.95;1.25;;;;;;;;;;7361818;19;20323;-80
2022/10/25 09:36:52;;;;;;;8.20;1.55;;;;;;;;;;7375781;19;20331;-80
2022/10/25 09:39:19;;;;;;;14.40;2.63;;;;;;;;;;7375461;19;20026;-79
2022/10/25 09:41:52;;;;;;;8.18;1.35;;;;;;;;;;7331625;19;20014;-81
2022/10/25 09:44:36;;;;;;;7.15;1.25;;;;;;;;;;7373732;19;20058;-81
2022/10/25 09:47:17;;;;;;;7.90;1.35;;;;;;;;;;7379475;19;20035;-80
2022/10/25 09:49:51;;;;;;;18.60;1.45;;;;;;;;;;7372377;19;20458;-80
2022/10/25 09:52:16;;;;;;;;;;;;;;;;;;7380062;19;20010;-81
2022/10/25 09:54:49;;;;;;;10.90;1.83;;;;;;;;;;7376953;19;19923;-80
2022/10/25 09:57:14;;;;;;;7.93;1.02;;;;;;;;;;7361543;19;20015;-80
2022/10/25 09:59:39;;;;;;;10.80;1.57;;;;;;;;;;7379893;19;20025;-80
2022/10/25 10:02:04;;;;;;;7.85;1.20;;;;;;;;;;7373810;19;20256;-80
2022/10/25 10:04:36;;;;;;;12.60;1.60;;;;;;;;;;7366023;19;20455;-80
2022/10/25 10:07:05;;;;;;;10.43;2.08;;;;;;;;;;7377509;19;20044;-81
2022/10/25 10:09:31;;;;;;;7.50;1.33;;;;;;;;;;7375391;19;20009;-82
2022/10/25 10:11:58;;;;;;;10.95;1.50;;;;;;;;;;7360606;19;20461;-82
2022/10/25 10:14:30;;;;;;;8.02;1.60;;;;;;;;;;7372915;19;20013;-82
2022/10/25 10:16:56;;;;;;;10.45;1.73;;;;;;;;;;7368923;19;20018;-81
2022/10/25 10:19:23;;;;;;;7.93;1.33;;;;;;;;;;7366509;19;20022;-81
2022/10/25 10:21:50;;;;;;;8.05;1.15;;;;;;;;;;7359169;19;19995;-80
2022/10/25 10:24:18;;;;;;;9.07;1.40;;;;;;;;;;7370856;19;20653;-81
2022/10/25 10:26:50;;;;;;;4.35;1.00;;;;;;;;;;7366583;19;20061;-80
2022/10/25 10:29:19;;;;;;;9.20;1.30;;;;;;;;;;7371454;19;20047;-79
2022/10/25 10:31:46;;;;;;;6.47;1.55;;;;;;;;;;7380858;19;20506;-80
2022/10/25 10:34:21;;;;;;;7.85;1.20;;;;;;;;;;7364923;19;20011;-80
2022/10/25 10:36:48;;;;;;;8.50;1.40;;;;;;;;;;7373755;19;20022;-80
2022/10/25 10:39:21;;;;;;;5.82;1.13;;;;;;;;;;7376059;19;20017;-79
2022/10/25 10:42:05;;;;;;;6.47;1.20;;;;;;;;;;7341282;19;20018;-80
2022/10/25 10:44:33;;;;;;;8.10;1.60;;;;;;;;;;7375159;19;20768;-80
2022/10/25 10:46:59;;;;;;;9.93;1.60;;;;;;;;;;7375464;19;20430;-81
2022/10/25 10:49:34;;;;;;;13.35;2.15;;;;;;;;;;7369224;19;20547;-79
2022/10/25 10:52:01;;;;;;;6.78;1.30;;;;;;;;;;7375208;19;20078;-80
2022/10/25 10:54:28;;;;;;;8.07;1.60;;;;;;;;;;7374083;19;19995;-80
2022/10/25 10:56:57;;;;;;;10.13;1.35;;;;;;;;;;7347000;19;20025;-80
2022/10/25 10:59:28;;;;;;;6.00;1.17;;;;;;;;;;7351411;19;19995;-80
2022/10/25 11:01:55;;;;;;;10.85;1.50;;;;;;;;;;7373295;19;20014;-80
2022/10/25 11:04:20;;;;;;;8.52;1.30;;;;;;;;;;7354480;19;20002;-80
2022/10/25 11:06:45;;;;;;;6.45;1.20;;;;;;;;;;7368797;19;20049;-80
2022/10/25 11:09:19;;;;;;;10.32;1.73;;;;;;;;;;7369590;19;20023;-80
2022/10/25 11:11:44;;;;;;;7.47;1.50;;;;;;;;;;7353102;19;20139;-81
2022/10/25 11:14:11;;;;;;;10.10;1.48;;;;;;;;;;7374119;19;20104;-81
2022/10/25 11:16:36;;;;;;;11.63;1.52;;;;;;;;;;7336045;19;20055;-81
2022/10/25 11:19:02;;;;;;;7.32;1.33;;;;;;;;;;7351534;19;20676;-82
2022/10/25 11:21:39;;;;;;;11.93;1.48;;;;;;;;;;7333969;19;20007;-81
2022/10/25 11:24:13;;;;;;;7.95;1.13;;;;;;;;;;7356065;19;20014;-81
2022/10/25 11:26:42;;;;;;;6.50;1.60;;;;;;;;;;7354767;19;20527;-81
2022/10/25 11:29:07;;;;;;;6.18;0.80;;;;;;;;;;7372248;19;20011;-80
2022/10/25 11:31:43;;;;;;;8.73;1.03;;;;;;;;;;7364506;19;20142;-81
2022/10/25 11:34:21;;;;;;;6.28;1.23;;;;;;;;;;7372699;19;20404;-80
2022/10/25 11:36:52;;;;;;;8.60;0.98;;;;;;;;;;7366800;19;20014;-80
2022/10/25 11:39:30;;;;;;;6.57;1.10;;;;;;;;;;7370696;19;20014;-80
2022/10/25 11:42:04;;;;;;;7.93;1.10;;;;;;;;;;7343227;19;20023;-81
2022/10/25 11:44:29;;;;;;;7.78;1.20;;;;;;;;;;7351642;19;20827;-81
2022/10/25 11:47:08;;;;;;;10.70;1.38;;;;;;;;;;7337161;19;20007;-81
2022/10/25 11:49:42;;;;;;;6.55;1.05;;;;;;;;;;7372044;19;20038;-81
2022/10/25 11:52:19;;;;;;;7.70;2.05;;;;;;;;;;7363393;19;20037;-80
2022/10/25 11:55:03;;;;;;;7.80;1.25;;;;;;;;;;7359791;19;20009;-80
2022/10/25 11:57:40;;;;;;;8.02;1.33;;;;;;;;;;7369363;19;20479;-80
2022/10/25 12:00:11;;;;;;;6.45;1.23;;;;;;;;;;7368178;19;20030;-80
2022/10/25 12:02:36;;;;;;;7.18;1.30;;;;;;;;;;7362736;19;20483;-81
2022/10/25 12:05:20;;;;;;;7.63;1.40;;;;;;;;;;7368541;19;20050;-81
2022/10/25 12:08:04;;;;;;;5.13;1.10;;;;;;;;;;7372242;19;20051;-81
2022/10/25 12:10:39;;;;;;;5.18;1.30;;;;;;;;;;7351246;19;20019;-81
2022/10/25 12:13:10;;;;;;;5.43;1.10;;;;;;;;;;7363613;19;20018;-81
2022/10/25 12:15:37;;;;;;;5.70;1.00;;;;;;;;;;7361380;19;20014;-80
2022/10/25 12:18:04;;;;;;;5.60;1.10;;;;;;;;;;7372784;19;20341;-81
2022/10/25 12:20:30;;;;;;;5.82;1.00;;;;;;;;;;7366217;19;20002;-81
2022/10/25 12:22:56;;;;;;;8.75;1.35;;;;;;;;;;7370380;19;20024;-81
2022/10/25 12:25:25;;;;;;;9.60;1.27;;;;;;;;;;7366066;19;20011;-80
2022/10/25 12:27:55;;;;;;;6.93;0.90;;;;;;;;;;7349361;19;20755;-80
2022/10/25 12:30:20;;;;;;;5.95;1.05;;;;;;;;;;7367384;19;20030;-80
2022/10/25 12:32:58;;;;;;;7.23;1.20;;;;;;;;;;7370536;19;20011;-81
2022/10/25 12:35:27;;;;;;;8.32;1.33;;;;;;;;;;7366736;19;20330;-81
2022/10/25 12:37:54;;;;;;;11.90;1.58;;;;;;;;;;7377108;19;20015;-79
2022/10/25 12:40:21;;;;;;;8.00;1.30;;;;;;;;;;7369900;19;20508;-81
2022/10/25 12:42:48;;;;;;;5.35;1.25;;;;;;;;;;7365187;19;20098;-81
2022/10/25 12:45:29;;;;;;;5.82;1.50;;;;;;;;;;7378933;19;20006;-80
2022/10/25 12:48:00;;;;;;;6.95;1.27;;;;;;;;;;7381434;19;20047;-81
2022/10/25 12:50:28;;;;;;;9.57;1.10;;;;;;;;;;7349399;19;20029;-81
2022/10/25 12:53:01;;;;;;;6.75;1.48;;;;;;;;;;7379119;19;20010;-81
2022/10/25 12:55:51;;;;;;;7.18;1.63;;;;;;;;;;7371499;19;20030;-81
2022/10/25 12:58:29;;;;;;;6.63;1.40;;;;;;;;;;7368456;19;20560;-81
2022/10/25 13:01:00;;;;;;;8.77;1.42;;;;;;;;;;7376147;19;20018;-80
2022/10/25 13:03:26;;;;;;;5.47;1.55;;;;;;;;;;7380035;19;20014;-80
2022/10/25 13:06:01;;;;;;;10.27;1.40;;;;;;;;;;7362207;19;20098;-80
2022/10/25 13:08:28;;;;;;;6.93;1.13;;;;;;;;;;7373456;19;20506;-80
2022/10/25 13:10:58;;;;;;;8.50;1.40;;;;;;;;;;7356125;19;20520;-80
2022/10/25 13:13:34;;;;;;;9.80;1.65;;;;;;;;;;7369322;19;20014;-81
2022/10/25 13:16:00;;;;;;;8.50;1.50;;;;;;;;;;7374766;19;20017;-80
2022/10/25 13:18:31;;;;;;;8.55;1.23;;;;;;;;;;7349591;19;20041;-81
2022/10/25 13:21:00;;;;;;;5.60;1.30;;;;;;;;;;7360924;19;20022;-80
2022/10/25 13:23:41;;;;;;;8.68;1.67;;;;;;;;;;7367076;19;20007;-81
2022/10/25 13:26:08;;;;;;;8.02;1.60;;;;;;;;;;7365415;19;20013;-81
2022/10/25 13:28:42;;;;;;;5.82;1.45;;;;;;;;;;7361865;19;19999;-80
2022/10/25 18:51:57;;;;;;;14.48;6.65;;;;;;;;;;7289253;19;20110;-82
2022/10/25 18:54:23;;;;;;;15.90;5.60;;;;;;;;;;7336237;19;20654;-81
2022/10/25 18:56:48;;;;;;;15.18;5.90;;;;;;;;;;7330609;19;20706;-82
2022/10/25 18:59:14;;;;;;;17.60;6.45;;;;;;;;;;7363994;19;20062;-80
2022/10/25 19:01:39;;;;;;;17.60;6.20;;;;;;;;;;7365583;19;20029;-79
2022/10/25 19:04:04;;;;;;;13.82;5.20;;;;;;;;;;7371505;19;19998;-79
2022/10/25 19:06:30;;;;;;;11.05;3.95;;;;;;;;;;7364842;19;20021;-80
2022/10/25 19:08:55;;;;;;;15.30;5.43;;;;;;;;;;7361945;19;19990;-79
2022/10/25 19:11:21;;;;;;;14.70;4.30;;;;;;;;;;7363081;19;20006;-80
2022/10/25 19:13:46;;;;;;;20.20;5.18;;;;;;;;;;7360794;19;20011;-79
2022/10/25 19:16:15;;;;;;;14.23;5.57;;;;;;;;;;7368638;19;20060;-78
2022/10/25 19:18:40;;;;;;;12.43;4.88;;;;;;;;;;7370125;19;20692;-78
2022/10/25 19:21:07;;;;;;;14.60;6.30;;;;;;;;;;7368680;19;20068;-79
2022/10/25 19:23:32;;;;;;;21.80;8.02;;;;;;;;;;7357081;19;20247;-81
2022/10/25 19:26:01;;;;;;;16.90;6.28;;;;;;;;;;7349554;19;20031;-79
2022/10/25 19:28:26;;;;;;;14.35;6.22;;;;;;;;;;7344411;19;20493;-82
2022/10/25 19:30:52;;;;;;;18.13;6.18;;;;;;;;;;7353237;19;20011;-80
2022/10/25 19:33:17;;;;;;;11.52;5.43;;;;;;;;;;7355446;19;20014;-78
2022/10/25 19:35:42;;;;;;;14.02;6.20;;;;;;;;;;7362704;19;20006;-81
2022/10/25 19:38:07;;;;;;;13.90;5.65;;;;;;;;;;7361201;19;20018;-79
2022/10/25 19:40:32;;;;;;;14.73;4.93;;;;;;;;;;7350441;19;20009;-79
2022/10/25 19:42:58;;;;;;;13.95;4.75;;;;;;;;;;7368113;19;21068;-79
2022/10/25 19:45:23;;;;;;;14.93;3.93;;;;;;;;;;7358619;19;20038;-77
2022/10/25 19:47:51;;;;;;;15.73;5.35;;;;;;;;;;7345878;19;20259;-82
2022/10/25 19:50:16;;;;;;;13.57;4.90;;;;;;;;;;7350442;19;20741;-79
2022/10/25 19:52:41;;;;;;;11.25;4.88;;;;;;;;;;7360431;19;20011;-81
2022/10/25 19:55:07;;;;;;;21.60;4.83;;;;;;;;;;7352060;19;20009;-81
2022/10/25 19:57:32;;;;;;;16.63;5.30;;;;;;;;;;7361914;19;20270;-78